Portada
METAR-TAF:

METAR-TAF

Aeropuertos :

Yamena, Chad

Aeropuerto Internacional de Yamena

latitud: 12-08N, longitud: 015-02E, altitud: 295 m

Observación

El informe se hizo hace 28 minutos, a las 20:00 UTC
Viento 5 kt del suroeste
Temperatura 34°C
Humedad 34%
Presión 1008 hPa
Visibilidad 10 km o más
sin nubes por debajo de 1500 m y sin presencia de cumulonimbus.

METAR: FTTJ 272000Z 22005KT CAVOK 34/16 Q1008 NOSIG

Hora: 21:28 (20:28 UTC)

Pronóstico

El informe se hizo hace 3 horas y 28 minutos, a las 17:00 UTC
Pronóstico válido del 27 a las 18 UTC al 28 a las 24 UTC
Viento 6 kt del este-noreste
Visibilidad: 8000 m
Evolucionando progresivamente
del 28 a las 08 UTC al 28 a las 10 UTC
Viento 10 kt del oeste-suroeste
Probabilidad 30% :
Temporalmente
del 28 a las 15 UTC al 28 a las 20 UTC
tormenta

TAF: FTTJ 271700Z 2718/2824 06006KT 8000 NSC BECMG 2808/2810 24010KT PROB30 TEMPO 2815/2820 TS

Observaciones y pronósticos meteorológicos de más de 4000 aeropuertos (mensajes METAR y TAF).

Los puntos amarillos y rojos representan las estaciones disponibles.

Ponga el ratón en el punto deseado para ver el nombre de la estación.

Haga clic para ver las observaciones y los pronósticos meteorológicos.

Para cambiar el mapa : haga clic en los botones verdes con una cruz de color negro para hacer un zoom, en el botón verde con un guión para alejar o en las flechas verdes para mapas adyacentes.


METAR-TAF: